sensor_id;sensor_type;location;lat;lon;timestamp;pressure;altitude;pressure_sealevel;temperature;humidity
50484;BME280;36409;52.168;20.878;2023-12-29T00:01:19;100146.52;;;4.47;76.52
50484;BME280;36409;52.168;20.878;2023-12-29T00:03:49;100139.64;;;4.50;76.10
50484;BME280;36409;52.168;20.878;2023-12-29T00:06:18;100137.05;;;4.51;76.68
50484;BME280;36409;52.168;20.878;2023-12-29T00:08:47;100137.05;;;4.51;76.21
50484;BME280;36409;52.168;20.878;2023-12-29T00:11:19;100133.62;;;4.52;76.76
50484;BME280;36409;52.168;20.878;2023-12-29T00:13:49;100137.94;;;4.53;76.36
50484;BME280;36409;52.168;20.878;2023-12-29T00:16:18;100139.67;;;4.56;76.63
50484;BME280;36409;52.168;20.878;2023-12-29T00:18:47;100141.41;;;4.57;77.15
50484;BME280;36409;52.168;20.878;2023-12-29T00:21:16;100135.37;;;4.58;76.34
50484;BME280;36409;52.168;20.878;2023-12-29T00:23:48;100136.26;;;4.60;76.71
50484;BME280;36409;52.168;20.878;2023-12-29T00:26:18;100134.52;;;4.60;76.68
50484;BME280;36409;52.168;20.878;2023-12-29T00:28:51;100137.99;;;4.61;76.54
50484;BME280;36409;52.168;20.878;2023-12-29T00:31:20;100131.94;;;4.62;76.86
50484;BME280;36409;52.168;20.878;2023-12-29T00:33:50;100135.41;;;4.64;76.57
50484;BME280;36409;52.168;20.878;2023-12-29T00:36:21;100130.27;;;4.66;76.34
50484;BME280;36409;52.168;20.878;2023-12-29T00:38:51;100132.00;;;4.67;76.47
50484;BME280;36409;52.168;20.878;2023-12-29T00:41:20;100133.70;;;4.68;76.74
50484;BME280;36409;52.168;20.878;2023-12-29T00:43:49;100132.84;;;4.69;76.48
50484;BME280;36409;52.168;20.878;2023-12-29T00:46:19;100129.41;;;4.70;76.44
50484;BME280;36409;52.168;20.878;2023-12-29T00:48:48;100128.52;;;4.68;76.73
50484;BME280;36409;52.168;20.878;2023-12-29T00:51:17;100129.41;;;4.67;76.58
50484;BME280;36409;52.168;20.878;2023-12-29T00:53:46;100129.38;;;4.65;76.59
50484;BME280;36409;52.168;20.878;2023-12-29T00:56:16;100130.23;;;4.62;76.39
50484;BME280;36409;52.168;20.878;2023-12-29T00:58:45;100131.09;;;4.61;76.46
50484;BME280;36409;52.168;20.878;2023-12-29T01:01:14;100135.37;;;4.59;76.30
50484;BME280;36409;52.168;20.878;2023-12-29T01:03:44;100128.47;;;4.58;76.38
50484;BME280;36409;52.168;20.878;2023-12-29T01:06:13;100122.42;;;4.56;76.05
50484;BME280;36409;52.168;20.878;2023-12-29T01:08:43;100127.59;;;4.55;76.37
50484;BME280;36409;52.168;20.878;2023-12-29T01:11:12;100124.13;;;4.53;75.97
50484;BME280;36409;52.168;20.878;2023-12-29T01:13:41;100124.13;;;4.51;76.38
50484;BME280;36409;52.168;20.878;2023-12-29T01:16:11;100116.34;;;4.48;76.33
50484;BME280;36409;52.168;20.878;2023-12-29T01:18:40;100128.39;;;4.44;76.25
50484;BME280;36409;52.168;20.878;2023-12-29T01:21:09;100125.80;;;4.43;75.98
50484;BME280;36409;52.168;20.878;2023-12-29T01:23:38;100122.30;;;4.38;76.08
50484;BME280;36409;52.168;20.878;2023-12-29T01:26:08;100113.67;;;4.34;76.25
50484;BME280;36409;52.168;20.878;2023-12-29T01:28:37;100105.89;;;4.29;75.77
50484;BME280;36409;52.168;20.878;2023-12-29T01:31:07;100098.11;;;4.26;75.84
50484;BME280;36409;52.168;20.878;2023-12-29T01:33:37;100107.56;;;4.21;75.78
50484;BME280;36409;52.168;20.878;2023-12-29T01:36:07;100099.78;;;4.16;75.67
50484;BME280;36409;52.168;20.878;2023-12-29T01:38:46;100104.91;;;4.13;75.84
50484;BME280;36409;52.168;20.878;2023-12-29T01:41:15;100107.45;;;4.10;75.99
50484;BME280;36409;52.168;20.878;2023-12-29T01:44:20;100098.83;;;4.07;75.81
50484;BME280;36409;52.168;20.878;2023-12-29T01:46:52;100105.66;;;4.01;76.00
50484;BME280;36409;52.168;20.878;2023-12-29T01:49:23;100091.01;;;3.99;75.57
50484;BME280;36409;52.168;20.878;2023-12-29T01:51:55;100079.79;;;3.94;75.54
50484;BME280;36409;52.168;20.878;2023-12-29T01:54:27;100076.33;;;3.92;76.27
50484;BME280;36409;52.168;20.878;2023-12-29T01:57:00;100071.97;;;3.88;76.35
50484;BME280;36409;52.168;20.878;2023-12-29T01:59:29;100067.63;;;3.83;75.49
50484;BME280;36409;52.168;20.878;2023-12-29T02:02:01;100059.88;;;3.80;76.02
50484;BME280;36409;52.168;20.878;2023-12-29T02:04:32;100053.79;;;3.75;75.77
50484;BME280;36409;52.168;20.878;2023-12-29T02:07:03;100055.48;;;3.71;75.86
50484;BME280;36409;52.168;20.878;2023-12-29T02:09:33;100045.13;;;3.65;76.17
50484;BME280;36409;52.168;20.878;2023-12-29T02:12:04;100060.53;;;3.61;76.25
50484;BME280;36409;52.168;20.878;2023-12-29T02:14:34;100049.32;;;3.55;75.73
50484;BME280;36409;52.168;20.878;2023-12-29T02:17:10;100053.56;;;3.50;75.83
50484;BME280;36409;52.168;20.878;2023-12-29T02:19:44;100046.63;;;3.45;75.84
50484;BME280;36409;52.168;20.878;2023-12-29T02:22:15;100037.11;;;3.39;76.03
50484;BME280;36409;52.168;20.878;2023-12-29T02:24:47;100036.21;;;3.34;75.40
50484;BME280;36409;52.168;20.878;2023-12-29T02:27:31;100031.01;;;3.29;76.12
50484;BME280;36409;52.168;20.878;2023-12-29T02:30:09;100031.81;;;3.25;75.71
50484;BME280;36409;52.168;20.878;2023-12-29T02:32:42;100035.20;;;3.21;75.62
50484;BME280;36409;52.168;20.878;2023-12-29T02:35:14;100034.34;;;3.19;76.34
50484;BME280;36409;52.168;20.878;2023-12-29T02:37:48;100036.03;;;3.15;75.56
50484;BME280;36409;52.168;20.878;2023-12-29T02:40:19;100028.25;;;3.12;76.37
50484;BME280;36409;52.168;20.878;2023-12-29T02:42:50;100036.83;;;3.09;75.58
50484;BME280;36409;52.168;20.878;2023-12-29T02:45:20;100027.32;;;3.07;75.53
50484;BME280;36409;52.168;20.878;2023-12-29T02:47:53;100024.73;;;3.05;76.52
50484;BME280;36409;52.168;20.878;2023-12-29T02:50:22;100024.69;;;3.02;76.47
50484;BME280;36409;52.168;20.878;2023-12-29T02:52:55;100025.53;;;3.00;76.11
50484;BME280;36409;52.168;20.878;2023-12-29T02:55:29;100029.80;;;2.98;75.97
50484;BME280;36409;52.168;20.878;2023-12-29T02:57:58;100030.64;;;2.95;75.71
50484;BME280;36409;52.168;20.878;2023-12-29T03:00:28;100028.91;;;2.92;76.56
50484;BME280;36409;52.168;20.878;2023-12-29T03:02:57;100025.44;;;2.90;76.32
50484;BME280;36409;52.168;20.878;2023-12-29T03:05:29;100033.97;;;2.88;76.33
50484;BME280;36409;52.168;20.878;2023-12-29T03:07:59;100034.81;;;2.85;76.64
50484;BME280;36409;52.168;20.878;2023-12-29T03:10:28;100036.49;;;2.82;76.59
50484;BME280;36409;52.168;20.878;2023-12-29T03:12:58;100026.98;;;2.77;76.65
50484;BME280;36409;52.168;20.878;2023-12-29T03:15:28;100030.39;;;2.75;75.74
50484;BME280;36409;52.168;20.878;2023-12-29T03:17:57;100027.77;;;2.72;76.64
50484;BME280;36409;52.168;20.878;2023-12-29T03:20:29;100021.76;;;2.70;76.73
50484;BME280;36409;52.168;20.878;2023-12-29T03:22:57;100011.41;;;2.68;76.43
50484;BME280;36409;52.168;20.878;2023-12-29T03:25:29;100016.56;;;2.68;76.39
50484;BME280;36409;52.168;20.878;2023-12-29T03:27:59;100012.25;;;2.67;76.36
50484;BME280;36409;52.168;20.878;2023-12-29T03:30:29;100017.41;;;2.67;76.42
50484;BME280;36409;52.168;20.878;2023-12-29T03:32:59;100010.55;;;2.68;76.76
50484;BME280;36409;52.168;20.878;2023-12-29T03:35:31;100012.25;;;2.67;76.32
50484;BME280;36409;52.168;20.878;2023-12-29T03:38:00;100007.09;;;2.67;76.98
50484;BME280;36409;52.168;20.878;2023-12-29T03:40:29;100007.98;;;2.68;76.66
50484;BME280;36409;52.168;20.878;2023-12-29T03:42:59;99995.09;;;2.68;76.20
50484;BME280;36409;52.168;20.878;2023-12-29T03:45:28;100003.67;;;2.67;76.57
50484;BME280;36409;52.168;20.878;2023-12-29T03:47:58;99998.52;;;2.67;76.22
50484;BME280;36409;52.168;20.878;2023-12-29T03:50:27;100001.94;;;2.67;76.14
50484;BME280;36409;52.168;20.878;2023-12-29T03:52:56;100002.78;;;2.66;76.80
50484;BME280;36409;52.168;20.878;2023-12-29T03:55:25;100004.52;;;2.66;77.09
50484;BME280;36409;52.168;20.878;2023-12-29T03:57:56;99993.36;;;2.67;77.29
50484;BME280;36409;52.168;20.878;2023-12-29T04:00:28;99995.05;;;2.65;77.24
50484;BME280;36409;52.168;20.878;2023-12-29T04:02:58;99988.16;;;2.65;76.94
50484;BME280;36409;52.168;20.878;2023-12-29T04:05:28;99995.89;;;2.63;77.34
50484;BME280;36409;52.168;20.878;2023-12-29T04:07:56;99989.00;;;2.62;76.38
50484;BME280;36409;52.168;20.878;2023-12-29T04:10:27;99993.31;;;2.63;76.80
50484;BME280;36409;52.168;20.878;2023-12-29T04:12:56;99995.00;;;2.61;76.45
50484;BME280;36409;52.168;20.878;2023-12-29T04:15:25;99992.46;;;2.63;77.42
50484;BME280;36409;52.168;20.878;2023-12-29T04:17:54;99993.31;;;2.63;76.52
50484;BME280;36409;52.168;20.878;2023-12-29T04:20:24;99988.16;;;2.63;76.94
50484;BME280;36409;52.168;20.878;2023-12-29T04:22:55;99980.42;;;2.63;77.48
50484;BME280;36409;52.168;20.878;2023-12-29T04:25:25;99980.42;;;2.63;77.14
50484;BME280;36409;52.168;20.878;2023-12-29T04:27:54;99980.44;;;2.65;76.86
50484;BME280;36409;52.168;20.878;2023-12-29T04:30:24;99971.86;;;2.66;76.62
50484;BME280;36409;52.168;20.878;2023-12-29T04:32:56;99966.73;;;2.68;76.99
50484;BME280;36409;52.168;20.878;2023-12-29T04:38:36;99971.91;;;2.71;77.73
50484;BME280;36409;52.168;20.878;2023-12-29T04:41:07;99967.64;;;2.73;77.00
50484;BME280;36409;52.168;20.878;2023-12-29T04:43:37;99963.37;;;2.73;77.44
50484;BME280;36409;52.168;20.878;2023-12-29T05:27:47;99941.89;;;3.73;78.03
50484;BME280;36409;52.168;20.878;2023-12-29T05:30:16;99944.56;;;3.82;78.07
50484;BME280;36409;52.168;20.878;2023-12-29T05:32:46;99938.58;;;3.88;78.66
50484;BME280;36409;52.168;20.878;2023-12-29T05:35:34;99942.88;;;3.92;77.90
50484;BME280;36409;52.168;20.878;2023-12-29T05:38:09;99948.95;;;3.97;78.28
50484;BME280;36409;52.168;20.878;2023-12-29T05:40:39;99948.98;;;4.02;78.28
50484;BME280;36409;52.168;20.878;2023-12-29T05:43:08;99945.57;;;4.08;78.12
50484;BME280;36409;52.168;20.878;2023-12-29T05:45:37;99950.77;;;4.11;77.82
50484;BME280;36409;52.168;20.878;2023-12-29T05:48:07;99943.03;;;4.15;77.94
50484;BME280;36409;52.168;20.878;2023-12-29T05:50:38;99955.13;;;4.21;78.70
50484;BME280;36409;52.168;20.878;2023-12-29T05:53:07;99957.70;;;4.24;78.51
50484;BME280;36409;52.168;20.878;2023-12-29T05:55:36;99951.70;;;4.28;78.18
50484;BME280;36409;52.168;20.878;2023-12-29T05:58:06;99944.82;;;4.32;78.42
50484;BME280;36409;52.168;20.878;2023-12-29T06:00:36;99944.84;;;4.35;78.28
50484;BME280;36409;52.168;20.878;2023-12-29T06:03:06;99942.25;;;4.37;78.23
50484;BME280;36409;52.168;20.878;2023-12-29T06:05:36;99940.55;;;4.40;78.06
50484;BME280;36409;52.168;20.878;2023-12-29T06:08:07;99942.30;;;4.43;78.33
50484;BME280;36409;52.168;20.878;2023-12-29T06:10:36;99931.95;;;4.44;77.91
50484;BME280;36409;52.168;20.878;2023-12-29T06:13:07;99928.53;;;4.48;78.12
50484;BME280;36409;52.168;20.878;2023-12-29T06:15:36;99924.23;;;4.52;78.50
50484;BME280;36409;52.168;20.878;2023-12-29T06:18:05;99923.38;;;4.55;78.53
50484;BME280;36409;52.168;20.878;2023-12-29T06:20:36;99914.78;;;4.60;78.58
50484;BME280;36409;52.168;20.878;2023-12-29T06:23:07;99911.33;;;4.63;78.51
50484;BME280;36409;52.168;20.878;2023-12-29T06:25:37;99913.94;;;4.64;78.38
50484;BME280;36409;52.168;20.878;2023-12-29T06:28:07;99915.66;;;4.67;77.99
50484;BME280;36409;52.168;20.878;2023-12-29T06:30:36;99918.27;;;4.70;78.28
50484;BME280;36409;52.168;20.878;2023-12-29T06:33:09;99918.25;;;4.72;78.37
50484;BME280;36409;52.168;20.878;2023-12-29T06:35:39;99913.08;;;4.72;78.08
50484;BME280;36409;52.168;20.878;2023-12-29T06:38:08;99920.84;;;4.70;78.25
50484;BME280;36409;52.168;20.878;2023-12-29T06:40:39;99918.23;;;4.69;78.00
50484;BME280;36409;52.168;20.878;2023-12-29T06:43:07;99909.63;;;4.68;78.11
50484;BME280;36409;52.168;20.878;2023-12-29T06:45:36;99913.92;;;4.68;77.55
50484;BME280;36409;52.168;20.878;2023-12-29T06:48:06;99921.68;;;4.68;78.06
50484;BME280;36409;52.168;20.878;2023-12-29T06:50:37;99916.51;;;4.68;77.92
50484;BME280;36409;52.168;20.878;2023-12-29T06:53:06;99919.97;;;4.68;78.18
50484;BME280;36409;52.168;20.878;2023-12-29T06:55:36;99919.97;;;4.68;77.88
50484;BME280;36409;52.168;20.878;2023-12-29T06:58:06;99918.24;;;4.67;77.85
50484;BME280;36409;52.168;20.878;2023-12-29T07:00:36;99915.66;;;4.69;77.41
50484;BME280;36409;52.168;20.878;2023-12-29T07:03:13;99932.91;;;4.68;77.91
50484;BME280;36409;52.168;20.878;2023-12-29T07:05:44;99923.41;;;4.69;77.53
50484;BME280;36409;52.168;20.878;2023-12-29T07:08:14;99915.67;;;4.70;77.66
50484;BME280;36409;52.168;20.878;2023-12-29T07:10:43;99920.84;;;4.70;77.81
50484;BME280;36409;52.168;20.878;2023-12-29T07:13:16;99907.91;;;4.72;77.63
50484;BME280;36409;52.168;20.878;2023-12-29T07:15:46;99905.33;;;4.72;77.68
50484;BME280;36409;52.168;20.878;2023-12-29T07:18:15;99894.97;;;4.73;77.83
50484;BME280;36409;52.168;20.878;2023-12-29T07:20:45;99892.39;;;4.73;77.44
50484;BME280;36409;52.168;20.878;2023-12-29T07:23:14;99900.16;;;4.76;77.51
50484;BME280;36409;52.168;20.878;2023-12-29T07:25:43;99894.13;;;4.77;77.28
50484;BME280;36409;52.168;20.878;2023-12-29T07:28:13;99895.85;;;4.80;77.90
50484;BME280;36409;52.168;20.878;2023-12-29T07:30:42;99894.14;;;4.82;77.75
50484;BME280;36409;52.168;20.878;2023-12-29T07:33:13;99895.02;;;4.83;77.90
50484;BME280;36409;52.168;20.878;2023-12-29T07:35:43;99891.56;;;4.85;77.87
50484;BME280;36409;52.168;20.878;2023-12-29T07:38:13;99885.53;;;4.88;77.88
50484;BME280;36409;52.168;20.878;2023-12-29T07:40:43;99880.37;;;4.91;77.57
50484;BME280;36409;52.168;20.878;2023-12-29T07:43:12;99885.55;;;4.94;77.52
50484;BME280;36409;52.168;20.878;2023-12-29T07:45:41;99874.34;;;4.95;77.38
50484;BME280;36409;52.168;20.878;2023-12-29T07:48:11;99872.63;;;4.94;77.31
50484;BME280;36409;52.168;20.878;2023-12-29T07:50:41;99883.80;;;4.96;77.86
50484;BME280;36409;52.168;20.878;2023-12-29T07:53:10;99870.87;;;4.96;77.24
50484;BME280;36409;52.168;20.878;2023-12-29T07:55:39;99873.48;;;4.98;77.57
50484;BME280;36409;52.168;20.878;2023-12-29T07:58:08;99870.88;;;4.99;77.52
50484;BME280;36409;52.168;20.878;2023-12-29T08:00:39;99871.77;;;5.00;77.22
50484;BME280;36409;52.168;20.878;2023-12-29T08:03:08;99870.03;;;5.03;77.90
50484;BME280;36409;52.168;20.878;2023-12-29T08:05:38;99869.16;;;5.10;77.74
50484;BME280;36409;52.168;20.878;2023-12-29T08:08:08;99869.17;;;5.18;77.79
50484;BME280;36409;52.168;20.878;2023-12-29T08:10:38;99865.72;;;5.24;77.45
50484;BME280;36409;52.168;20.878;2023-12-29T08:13:07;99863.11;;;5.30;77.65
50484;BME280;36409;52.168;20.878;2023-12-29T08:15:38;99865.70;;;5.35;77.95
50484;BME280;36409;52.168;20.878;2023-12-29T08:18:08;99868.28;;;5.43;77.36
50484;BME280;36409;52.168;20.878;2023-12-29T08:20:39;99859.66;;;5.50;77.62
50484;BME280;36409;52.168;20.878;2023-12-29T08:23:10;99862.23;;;5.56;77.65
50484;BME280;36409;52.168;20.878;2023-12-29T08:25:39;99869.14;;;5.60;77.84
50484;BME280;36409;52.168;20.878;2023-12-29T08:28:09;99858.75;;;5.63;77.60
50484;BME280;36409;52.168;20.878;2023-12-29T08:30:39;99860.47;;;5.72;77.72
50484;BME280;36409;52.168;20.878;2023-12-29T08:33:09;99856.13;;;5.80;77.47
50484;BME280;36409;52.168;20.878;2023-12-29T08:35:41;99870.78;;;5.86;77.21
50484;BME280;36409;52.168;20.878;2023-12-29T08:38:12;99869.92;;;5.90;77.32
50484;BME280;36409;52.168;20.878;2023-12-29T08:40:41;99865.59;;;5.94;77.29
50484;BME280;36409;52.168;20.878;2023-12-29T08:43:10;99873.36;;;5.97;76.94
50484;BME280;36409;52.168;20.878;2023-12-29T08:45:40;99871.61;;;5.97;76.92
50484;BME280;36409;52.168;20.878;2023-12-29T08:48:10;99869.05;;;6.00;76.92
50484;BME280;36409;52.168;20.878;2023-12-29T08:50:39;99878.55;;;6.05;76.97
50484;BME280;36409;52.168;20.878;2023-12-29T08:53:08;99870.78;;;6.08;76.78
50484;BME280;36409;52.168;20.878;2023-12-29T08:55:37;99862.13;;;6.13;77.21
50484;BME280;36409;52.168;20.878;2023-12-29T08:58:07;99858.64;;;6.16;76.93
50484;BME280;36409;52.168;20.878;2023-12-29T09:00:37;99846.51;;;6.21;76.65
50484;BME280;36409;52.168;20.878;2023-12-29T09:03:09;99846.50;;;6.27;76.62
50484;BME280;36409;52.168;20.878;2023-12-29T09:05:41;99855.94;;;6.36;76.64
50484;BME280;36409;52.168;20.878;2023-12-29T09:08:10;99856.79;;;6.41;76.64
50484;BME280;36409;52.168;20.878;2023-12-29T09:10:40;99856.77;;;6.46;76.69
50484;BME280;36409;52.168;20.878;2023-12-29T09:13:09;99859.33;;;6.51;76.62
50484;BME280;36409;52.168;20.878;2023-12-29T09:15:38;99858.44;;;6.58;76.41
50484;BME280;36409;52.168;20.878;2023-12-29T09:18:08;99850.61;;;6.64;76.50
50484;BME280;36409;52.168;20.878;2023-12-29T09:20:41;99854.91;;;6.67;76.43
50484;BME280;36409;52.168;20.878;2023-12-29T09:23:12;99849.67;;;6.74;76.33
50484;BME280;36409;52.168;20.878;2023-12-29T09:25:42;99837.55;;;6.79;76.69
50484;BME280;36409;52.168;20.878;2023-12-29T09:28:12;99851.34;;;6.86;76.67
50484;BME280;36409;52.168;20.878;2023-12-29T09:30:42;99841.76;;;6.94;76.51
50484;BME280;36409;52.168;20.878;2023-12-29T09:33:11;99845.17;;;7.01;76.49
50484;BME280;36409;52.168;20.878;2023-12-29T09:35:40;99826.05;;;7.11;76.41
50484;BME280;36409;52.168;20.878;2023-12-29T09:38:10;99836.32;;;7.22;76.14
50484;BME280;36409;52.168;20.878;2023-12-29T09:40:42;99828.48;;;7.27;76.33
50484;BME280;36409;52.168;20.878;2023-12-29T09:43:13;99831.05;;;7.33;75.97
50484;BME280;36409;52.168;20.878;2023-12-29T09:45:45;99831.00;;;7.38;76.59
50484;BME280;36409;52.168;20.878;2023-12-29T09:48:17;99823.19;;;7.41;76.46
50484;BME280;36409;52.168;20.878;2023-12-29T09:50:50;99831.78;;;7.46;76.39
50484;BME280;36409;52.168;20.878;2023-12-29T09:53:21;99832.58;;;7.53;76.24
50484;BME280;36409;52.168;20.878;2023-12-29T09:55:50;99826.48;;;7.57;76.01
50484;BME280;36409;52.168;20.878;2023-12-29T09:58:22;99830.76;;;7.63;76.19
50484;BME280;36409;52.168;20.878;2023-12-29T10:00:54;99841.92;;;7.71;76.17
50484;BME280;36409;52.168;20.878;2023-12-29T10:03:25;99831.45;;;7.79;75.54
50484;BME280;36409;52.168;20.878;2023-12-29T10:05:55;99824.44;;;7.84;75.90
50484;BME280;36409;52.168;20.878;2023-12-29T10:08:26;99833.03;;;7.91;75.89
50484;BME280;36409;52.168;20.878;2023-12-29T10:11:00;99836.42;;;7.97;75.25
50484;BME280;36409;52.168;20.878;2023-12-29T10:13:30;99831.11;;;8.08;75.53
50484;BME280;36409;52.168;20.878;2023-12-29T10:16:12;99831.47;;;9.55;73.22
50484;BME280;36409;52.168;20.878;2023-12-29T10:18:52;99815.34;;;9.35;74.35
50484;BME280;36409;52.168;20.878;2023-12-29T10:21:29;99826.94;;;9.17;74.52
50484;BME280;36409;52.168;20.878;2023-12-29T10:24:05;99832.78;;;9.30;74.07
50484;BME280;36409;52.168;20.878;2023-12-29T10:26:40;99810.75;;;9.49;74.26
50484;BME280;36409;52.168;20.878;2023-12-29T10:29:12;99811.32;;;9.65;74.12
50484;BME280;36409;52.168;20.878;2023-12-29T10:31:45;99805.59;;;9.92;73.07
50484;BME280;36409;52.168;20.878;2023-12-29T10:34:23;99811.23;;;9.70;73.29
50484;BME280;36409;52.168;20.878;2023-12-29T10:36:58;99801.33;;;10.28;72.49
50484;BME280;36409;52.168;20.878;2023-12-29T10:39:30;99799.64;;;9.85;73.68
50484;BME280;36409;52.168;20.878;2023-12-29T10:42:05;99799.23;;;9.61;73.44
50484;BME280;36409;52.168;20.878;2023-12-29T10:44:36;99807.13;;;9.56;72.80
50484;BME280;36409;52.168;20.878;2023-12-29T10:47:09;99810.92;;;9.40;73.38
50484;BME280;36409;52.168;20.878;2023-12-29T10:49:40;99820.64;;;9.30;72.99
50484;BME280;36409;52.168;20.878;2023-12-29T10:52:24;99810.00;;;9.42;72.88
50484;BME280;36409;52.168;20.878;2023-12-29T10:55:05;99814.47;;;9.36;72.82
50484;BME280;36409;52.168;20.878;2023-12-29T10:57:36;99809.25;;;9.36;72.73
50484;BME280;36409;52.168;20.878;2023-12-29T11:00:08;99799.01;;;9.26;73.43
50484;BME280;36409;52.168;20.878;2023-12-29T11:02:38;99800.02;;;9.18;73.78
50484;BME280;36409;52.168;20.878;2023-12-29T11:05:09;99801.02;;;9.10;73.15
50484;BME280;36409;52.168;20.878;2023-12-29T11:07:40;99797.63;;;9.05;73.47
50484;BME280;36409;52.168;20.878;2023-12-29T11:10:10;99800.27;;;9.04;73.68
50484;BME280;36409;52.168;20.878;2023-12-29T11:12:40;99796.78;;;9.03;72.90
50484;BME280;36409;52.168;20.878;2023-12-29T11:15:10;99803.70;;;9.06;73.49
50484;BME280;36409;52.168;20.878;2023-12-29T11:17:43;99795.02;;;9.05;72.98
50484;BME280;36409;52.168;20.878;2023-12-29T11:20:19;99782.00;;;9.05;73.40
50484;BME280;36409;52.168;20.878;2023-12-29T11:22:52;99787.17;;;9.07;72.91
50484;BME280;36409;52.168;20.878;2023-12-29T11:25:23;99772.34;;;9.12;73.88
50484;BME280;36409;52.168;20.878;2023-12-29T11:27:54;99766.13;;;9.19;73.08
50484;BME280;36409;52.168;20.878;2023-12-29T11:30:28;99763.43;;;9.25;72.95
50484;BME280;36409;52.168;20.878;2023-12-29T11:33:01;99757.34;;;9.26;73.37
50484;BME280;36409;52.168;20.878;2023-12-29T11:35:39;99762.59;;;9.23;73.20
50484;BME280;36409;52.168;20.878;2023-12-29T11:38:37;99753.19;;;9.16;72.44
50484;BME280;36409;52.168;20.878;2023-12-29T11:41:17;99745.52;;;9.07;72.90
50484;BME280;36409;52.168;20.878;2023-12-29T11:43:58;99744.80;;;9.00;72.63
50484;BME280;36409;52.168;20.878;2023-12-29T11:46:38;99740.56;;;8.94;72.85
50484;BME280;36409;52.168;20.878;2023-12-29T11:49:08;99741.48;;;8.90;72.94
50484;BME280;36409;52.168;20.878;2023-12-29T11:51:41;99731.95;;;8.89;73.12
50484;BME280;36409;52.168;20.878;2023-12-29T11:54:10;99726.75;;;8.89;72.97
50484;BME280;36409;52.168;20.878;2023-12-29T11:56:50;99718.94;;;8.89;72.29
50484;BME280;36409;52.168;20.878;2023-12-29T11:59:21;99725.03;;;8.88;72.75
50484;BME280;36409;52.168;20.878;2023-12-29T12:01:53;99718.10;;;8.89;72.43
50484;BME280;36409;52.168;20.878;2023-12-29T12:04:40;99716.30;;;8.91;72.74
50484;BME280;36409;52.168;20.878;2023-12-29T12:07:17;99717.19;;;8.90;72.49
50484;BME280;36409;52.168;20.878;2023-12-29T12:09:47;99718.98;;;8.88;72.21
50484;BME280;36409;52.168;20.878;2023-12-29T12:12:39;99722.47;;;8.85;72.67
50484;BME280;36409;52.168;20.878;2023-12-29T12:15:32;99735.56;;;8.82;72.97
50484;BME280;36409;52.168;20.878;2023-12-29T12:18:04;99727.00;;;8.75;72.66
50484;BME280;36409;52.168;20.878;2023-12-29T12:20:37;99734.84;;;8.72;72.34
50484;BME280;36409;52.168;20.878;2023-12-29T12:23:15;99738.37;;;8.70;72.79
50484;BME280;36409;52.168;20.878;2023-12-29T12:25:46;99725.40;;;8.67;72.21
50484;BME280;36409;52.168;20.878;2023-12-29T12:28:18;99728.84;;;8.69;72.65
50484;BME280;36409;52.168;20.878;2023-12-29T12:30:48;99726.20;;;8.70;72.44
50484;BME280;36409;52.168;20.878;2023-12-29T12:33:18;99720.95;;;8.73;73.04
50484;BME280;36409;52.168;20.878;2023-12-29T12:35:47;99713.91;;;8.80;72.09
50484;BME280;36409;52.168;20.878;2023-12-29T12:38:27;99725.03;;;8.88;72.19
50484;BME280;36409;52.168;20.878;2023-12-29T12:41:10;99719.74;;;8.93;72.11
50484;BME280;36409;52.168;20.878;2023-12-29T12:43:50;99718.82;;;8.95;71.88
50484;BME280;36409;52.168;20.878;2023-12-29T12:46:24;99726.63;;;8.97;72.86
50484;BME280;36409;52.168;20.878;2023-12-29T12:48:53;99721.41;;;8.97;72.07
50484;BME280;36409;52.168;20.878;2023-12-29T12:51:23;99720.58;;;8.95;71.91
50484;BME280;36409;52.168;20.878;2023-12-29T12:53:53;99722.34;;;8.94;72.64
50484;BME280;36409;52.168;20.878;2023-12-29T12:56:22;99721.50;;;8.92;72.44
50484;BME280;36409;52.168;20.878;2023-12-29T12:59:03;99720.63;;;8.92;72.22
50484;BME280;36409;52.168;20.878;2023-12-29T13:01:37;99731.91;;;8.92;72.50
50484;BME280;36409;52.168;20.878;2023-12-29T13:04:08;99730.19;;;8.91;72.23
50484;BME280;36409;52.168;20.878;2023-12-29T13:06:42;99726.70;;;8.92;72.30
50484;BME280;36409;52.168;20.878;2023-12-29T13:09:13;99727.55;;;8.93;71.93
50484;BME280;36409;52.168;20.878;2023-12-29T13:11:47;99735.39;;;8.91;71.95
50484;BME280;36409;52.168;20.878;2023-12-29T13:14:23;99726.71;;;8.91;72.13
50484;BME280;36409;52.168;20.878;2023-12-29T13:16:54;99728.47;;;8.90;72.40
50484;BME280;36409;52.168;20.878;2023-12-29T13:19:24;99729.31;;;8.91;72.29
50484;BME280;36409;52.168;20.878;2023-12-29T13:21:55;99723.27;;;8.90;72.23
50484;BME280;36409;52.168;20.878;2023-12-29T13:24:26;99724.11;;;8.91;71.85
50484;BME280;36409;52.168;20.878;2023-12-29T13:27:01;99724.11;;;8.91;72.07
50484;BME280;36409;52.168;20.878;2023-12-29T13:29:31;99725.91;;;8.89;71.86
50484;BME280;36409;52.168;20.878;2023-12-29T13:32:05;99723.31;;;8.87;71.51
50484;BME280;36409;52.168;20.878;2023-12-29T13:34:43;99717.30;;;8.84;71.84
50484;BME280;36409;52.168;20.878;2023-12-29T13:37:24;99716.47;;;8.81;71.95
50484;BME280;36409;52.168;20.878;2023-12-29T13:40:02;99732.13;;;8.78;71.77
50484;BME280;36409;52.168;20.878;2023-12-29T13:42:40;99722.67;;;8.74;71.98
50484;BME280;36409;52.168;20.878;2023-12-29T13:45:13;99732.24;;;8.72;71.72
50484;BME280;36409;52.168;20.878;2023-12-29T13:47:45;99731.41;;;8.70;71.88
50484;BME280;36409;52.168;20.878;2023-12-29T13:50:15;99734.89;;;8.69;72.30
50484;BME280;36409;52.168;20.878;2023-12-29T13:52:44;99740.09;;;8.69;72.12
50484;BME280;36409;52.168;20.878;2023-12-29T13:55:24;99747.05;;;8.69;72.42
50484;BME280;36409;52.168;20.878;2023-12-29T13:57:58;99741.89;;;8.65;71.67
50484;BME280;36409;52.168;20.878;2023-12-29T14:00:29;99747.13;;;8.64;72.19
50484;BME280;36409;52.168;20.878;2023-12-29T14:03:06;99749.77;;;8.61;71.97
50484;BME280;36409;52.168;20.878;2023-12-29T14:05:51;99744.64;;;8.56;71.71